createdAt,value
2022-10-02T00:00:01.987Z,1.23
2022-10-02T00:02:43.839Z,1.20
2022-10-02T00:05:15.877Z,0.43
2022-10-02T00:07:47.731Z,0.50
2022-10-02T00:10:21.295Z,0.10
2022-10-02T00:12:55.295Z,2.03
2022-10-02T00:15:28.180Z,1.77
2022-10-02T00:18:03.497Z,0.70
2022-10-02T00:20:40.709Z,0.40
2022-10-02T00:23:17.079Z,0.20
2022-10-02T00:25:52.691Z,1.63
2022-10-02T00:28:27.747Z,0.80
2022-10-02T00:31:13.980Z,0.10
2022-10-02T00:33:56.737Z,0.50
2022-10-02T00:36:36.473Z,0.27
2022-10-02T00:39:16.226Z,0.30
2022-10-02T00:42:35.206Z,0.57
2022-10-02T00:45:38.427Z,0.60
2022-10-02T00:48:19.270Z,1.57
2022-10-02T00:50:59.076Z,3.53
2022-10-02T00:53:37.886Z,0.23
2022-10-02T00:56:17.419Z,1.23
2022-10-02T00:59:01.196Z,1.50
2022-10-02T01:01:37.965Z,2.07
2022-10-02T01:04:10.612Z,0.40
2022-10-02T01:06:40.721Z,0.10
2022-10-02T01:09:09.010Z,1.13
2022-10-02T01:11:39.529Z,0.10
2022-10-02T01:14:08.278Z,0.67
2022-10-02T01:16:36.819Z,0.27
2022-10-02T01:19:05.438Z,2.00
2022-10-02T01:21:40.418Z,0.43
2022-10-02T01:24:16.883Z,0.20
2022-10-02T01:26:47.431Z,2.10
2022-10-02T01:29:15.901Z,1.27
2022-10-02T01:31:44.563Z,0.40
2022-10-02T01:34:13.504Z,0.10
2022-10-02T01:36:41.820Z,0.30
2022-10-02T01:39:11.474Z,1.87
2022-10-02T01:41:45.063Z,1.83
2022-10-02T01:44:16.390Z,1.40
2022-10-02T01:46:53.097Z,0.30
2022-10-02T01:49:46.216Z,1.20
2022-10-02T01:52:36.708Z,0.10
2022-10-02T01:55:18.147Z,0.63
2022-10-02T01:58:01.031Z,0.20
2022-10-02T02:00:37.406Z,0.37
2022-10-02T02:03:15.410Z,3.13
2022-10-02T02:05:50.521Z,0.53
2022-10-02T02:08:28.823Z,0.87
2022-10-02T02:11:10.359Z,0.10
2022-10-02T02:13:45.943Z,0.67
2022-10-02T02:16:26.013Z,0.50
2022-10-02T02:19:01.452Z,0.30
2022-10-02T02:21:34.527Z,0.20
2022-10-02T02:24:10.639Z,0.57
2022-10-02T02:26:44.208Z,1.50
2022-10-02T02:29:15.074Z,0.47
2022-10-02T02:31:50.530Z,1.33
2022-10-02T02:34:23.052Z,0.50
2022-10-02T02:36:57.476Z,0.30
2022-10-02T02:39:32.147Z,2.00
2022-10-02T02:42:04.296Z,4.33
2022-10-02T02:44:36.308Z,0.10
2022-10-02T02:47:12.828Z,0.90
2022-10-02T02:49:50.030Z,0.60
2022-10-02T02:52:22.662Z,1.03
2022-10-02T02:54:57.654Z,1.23
2022-10-02T02:57:31.434Z,2.20
2022-10-02T03:00:02.304Z,0.37
2022-10-02T03:02:33.039Z,0.43
2022-10-02T03:05:01.422Z,0.67
2022-10-02T03:07:29.840Z,1.60
2022-10-02T03:10:07.425Z,0.37
2022-10-02T03:12:49.918Z,0.03
2022-10-02T03:15:28.334Z,0.30
2022-10-02T03:18:13.492Z,1.23
2022-10-02T03:20:50.636Z,0.57
2022-10-02T03:23:27.920Z,0.20
2022-10-02T03:26:04.023Z,0.20
2022-10-02T03:28:55.144Z,0.27
2022-10-02T03:31:26.974Z,0.20
2022-10-02T03:33:59.507Z,0.73
2022-10-02T03:36:28.080Z,2.27
2022-10-02T03:39:23.772Z,1.57
2022-10-02T03:41:48.568Z,0.83
2022-10-02T03:44:16.834Z,0.37
2022-10-02T03:46:45.823Z,1.83
2022-10-02T03:49:15.463Z,0.40
2022-10-02T03:51:44.234Z,0.30
2022-10-02T03:54:17.691Z,1.17
2022-10-02T03:56:54.391Z,0.43
2022-10-02T03:59:41.338Z,0.30
2022-10-02T04:02:19.735Z,2.70
2022-10-02T04:04:53.608Z,0.20
2022-10-02T04:07:27.246Z,0.50
2022-10-02T04:10:08.762Z,0.40
2022-10-02T04:12:42.809Z,0.50
2022-10-02T04:15:21.064Z,1.40
2022-10-02T04:17:58.804Z,1.00
2022-10-02T04:20:41.786Z,0.30
2022-10-02T04:23:17.529Z,0.60
2022-10-02T04:25:50.920Z,0.30
2022-10-02T04:28:24.550Z,1.13
2022-10-02T04:30:53.794Z,0.40
2022-10-02T04:33:25.643Z,2.03
2022-10-02T04:36:08.298Z,0.37
2022-10-02T04:38:54.598Z,0.43
2022-10-02T04:41:46.054Z,1.60
2022-10-02T04:44:30.828Z,0.20
2022-10-02T04:47:14.779Z,1.07
2022-10-02T04:50:10.795Z,1.03
2022-10-02T04:53:12.305Z,0.30
2022-10-02T04:55:53.644Z,1.00
2022-10-02T04:58:34.813Z,0.40
2022-10-02T05:01:14.987Z,1.40
2022-10-02T05:04:05.482Z,0.57
2022-10-02T05:06:47.486Z,0.53
2022-10-02T05:09:28.316Z,1.43
2022-10-02T05:12:15.708Z,0.83
2022-10-02T05:15:13.311Z,0.30
2022-10-02T05:17:55.519Z,0.30
2022-10-02T05:20:37.630Z,0.13
2022-10-02T05:23:20.818Z,0.70
2022-10-02T05:26:20.054Z,0.23
2022-10-02T05:29:06.925Z,1.77
2022-10-02T05:31:49.788Z,0.40
2022-10-02T05:34:32.808Z,0.20
2022-10-02T05:37:26.132Z,0.30
2022-10-02T05:40:03.062Z,2.00
2022-10-02T05:42:42.345Z,0.60
2022-10-02T05:45:23.505Z,4.13
2022-10-02T05:47:55.215Z,1.53
2022-10-02T05:50:28.668Z,3.03
2022-10-02T05:53:00.611Z,0.20
2022-10-02T05:55:36.706Z,2.57
2022-10-02T05:58:09.323Z,0.20
2022-10-02T06:00:42.387Z,0.37
2022-10-02T06:03:17.897Z,0.20
2022-10-02T06:05:55.465Z,0.90
2022-10-02T06:08:33.368Z,0.30
2022-10-02T06:11:08.207Z,2.73
2022-10-02T06:13:45.109Z,0.60
2022-10-02T06:16:21.811Z,2.70
2022-10-02T06:18:57.853Z,1.17
2022-10-02T06:21:32.750Z,1.23
2022-10-02T06:24:05.911Z,0.37
2022-10-02T06:26:43.120Z,1.87
2022-10-02T06:29:22.512Z,0.40
2022-10-02T06:32:05.062Z,0.30
2022-10-02T06:34:33.383Z,0.97
2022-10-02T06:37:29.546Z,0.63
2022-10-02T06:40:34.418Z,0.50
2022-10-02T06:43:13.342Z,0.20
2022-10-02T06:45:53.332Z,2.10
2022-10-02T06:48:26.805Z,2.10
2022-10-02T06:51:01.671Z,2.60
2022-10-02T06:53:46.665Z,0.13
2022-10-02T06:56:37.725Z,0.83
2022-10-02T06:59:24.814Z,2.27
2022-10-02T07:02:03.322Z,0.47
2022-10-02T07:04:48.019Z,1.17
2022-10-02T07:07:28.153Z,1.03
2022-10-02T07:10:18.520Z,0.50
2022-10-02T07:13:13.010Z,1.50
2022-10-02T07:15:58.115Z,0.70
2022-10-02T07:18:42.783Z,1.30
2022-10-02T07:21:21.519Z,1.03
2022-10-02T07:24:02.217Z,0.60
2022-10-02T07:26:46.287Z,2.10
2022-10-02T07:29:33.233Z,2.00
2022-10-02T07:32:31.865Z,0.50
2022-10-02T07:35:09.455Z,0.87
2022-10-02T07:37:49.581Z,0.40
2022-10-02T07:40:36.263Z,1.00
2022-10-02T07:43:18.148Z,0.37
2022-10-02T07:45:56.113Z,1.53
2022-10-02T07:48:34.475Z,1.40
2022-10-02T07:51:50.189Z,0.50
2022-10-02T07:54:49.047Z,223.13
2022-10-02T07:57:28.858Z,185.33
2022-10-02T08:00:04.057Z,74.03
2022-10-02T08:02:44.498Z,44.67
2022-10-02T08:05:21.005Z,26.07
2022-10-02T08:07:55.465Z,24.50
2022-10-02T08:10:27.735Z,38.33
2022-10-02T08:13:04.770Z,2.20
2022-10-02T08:15:38.845Z,5.90
2022-10-02T08:18:35.337Z,84.10
2022-10-02T08:21:09.943Z,150.03
2022-10-02T08:23:44.789Z,26.17
2022-10-02T08:26:19.192Z,14.13
2022-10-02T08:28:53.871Z,1.73
2022-10-02T08:31:24.568Z,6.10
2022-10-02T08:33:53.112Z,11.07
2022-10-02T08:36:48.410Z,12.57
2022-10-02T08:39:35.514Z,1.13
2022-10-02T08:42:36.982Z,1.83
2022-10-02T08:45:34.092Z,3.03
2022-10-02T08:48:32.133Z,3.45
2022-10-02T08:51:20.843Z,0.70
2022-10-02T08:54:29.385Z,3.13
2022-10-02T08:57:14.721Z,2.08
2022-10-02T09:00:09.610Z,0.60
2022-10-02T09:03:24.899Z,3.20
2022-10-02T09:06:24.386Z,4.85
2022-10-02T09:09:36.125Z,1.75
2022-10-02T09:12:38.030Z,0.60
2022-10-02T09:15:17.126Z,0.93
2022-10-02T09:17:50.528Z,24.70
2022-10-02T09:20:55.428Z,4.72
2022-10-02T09:23:59.306Z,7.82
2022-10-02T09:26:38.108Z,7.13
2022-10-02T09:29:44.839Z,3.80
2022-10-02T09:33:01.510Z,2.40
2022-10-02T09:36:08.927Z,1.90
2022-10-02T09:39:15.254Z,4.15
2022-10-02T09:42:07.319Z,0.43
2022-10-02T09:45:21.234Z,0.20
2022-10-02T09:48:21.059Z,2.45
2022-10-02T09:51:18.955Z,2.15
2022-10-02T09:54:21.457Z,4.32
2022-10-02T09:57:35.916Z,2.90
2022-10-02T10:00:24.471Z,1.50
2022-10-02T10:03:13.387Z,1.40
2022-10-02T10:06:17.880Z,1.27
2022-10-02T10:09:09.448Z,1.80
2022-10-02T10:12:02.882Z,1.83
2022-10-02T10:15:10.095Z,2.67
2022-10-02T10:18:12.319Z,0.85
2022-10-02T10:21:29.441Z,0.20
2022-10-02T10:24:34.138Z,0.25
2022-10-02T10:27:40.232Z,0.20
2022-10-02T10:30:48.285Z,0.95
2022-10-02T10:33:48.434Z,3.35
2022-10-02T10:36:49.094Z,0.28
2022-10-02T10:39:54.811Z,0.90
2022-10-02T10:43:06.432Z,0.70
2022-10-02T10:45:48.606Z,0.40
2022-10-02T10:48:39.094Z,0.85
2022-10-02T10:51:30.725Z,0.30
2022-10-02T10:54:30.537Z,0.20
2022-10-02T10:57:08.873Z,0.05
2022-10-02T11:00:14.222Z,3.63
2022-10-02T11:03:18.057Z,1.20
2022-10-02T11:06:12.872Z,4.28
2022-10-02T11:09:05.549Z,1.30
2022-10-02T11:11:41.904Z,1.52
2022-10-02T11:14:27.927Z,1.65
2022-10-02T11:17:24.935Z,4.18
2022-10-02T11:20:08.722Z,4.95
2022-10-02T11:22:55.323Z,0.93
2022-10-02T11:25:47.097Z,1.35
2022-10-02T11:28:41.167Z,3.47
2022-10-02T11:31:30.764Z,1.52
2022-10-02T11:34:22.302Z,1.70
2022-10-02T11:37:04.095Z,1.50
2022-10-02T11:39:50.096Z,10.70
2022-10-02T11:42:45.531Z,3.50
2022-10-02T11:45:39.010Z,0.50
2022-10-02T11:48:28.097Z,0.55
2022-10-02T11:51:17.483Z,0.65
2022-10-02T11:54:11.600Z,0.57
2022-10-02T11:57:09.693Z,0.40
2022-10-02T12:00:06.017Z,0.10
2022-10-02T12:02:56.449Z,0.10
2022-10-02T12:05:53.601Z,0.30
2022-10-02T12:08:34.448Z,0.63
2022-10-02T12:11:13.248Z,0.32
2022-10-02T12:14:01.618Z,0.35
2022-10-02T12:16:48.867Z,0.60
2022-10-02T12:19:27.775Z,0.85
2022-10-02T12:22:25.660Z,0.10
2022-10-02T12:25:21.138Z,0.10
2022-10-02T12:28:01.992Z,0.40
2022-10-02T12:30:40.802Z,1.80
2022-10-02T12:33:23.175Z,0.43
2022-10-02T12:36:21.367Z,1.98
2022-10-02T12:39:05.363Z,1.20
2022-10-02T12:41:47.259Z,0.30
2022-10-02T12:44:35.773Z,0.32
2022-10-02T12:47:24.033Z,1.45
2022-10-02T12:50:05.881Z,0.95
2022-10-02T12:53:18.671Z,0.47
2022-10-02T12:56:35.507Z,1.52
2022-10-02T12:59:14.020Z,0.28
2022-10-02T13:02:33.096Z,0.22
2022-10-02T13:05:36.697Z,0.40
2022-10-02T13:08:23.625Z,0.10
2022-10-02T13:11:02.154Z,0.22
2022-10-02T13:13:52.808Z,0.30
2022-10-02T13:16:32.507Z,2.45
2022-10-02T13:19:10.530Z,0.35
2022-10-02T13:21:50.762Z,2.47
2022-10-02T13:24:32.978Z,0.28
2022-10-02T13:27:14.234Z,2.47
2022-10-02T13:30:03.985Z,0.30
2022-10-02T13:32:44.845Z,0.82
2022-10-02T13:35:34.627Z,0.20
2022-10-02T13:38:30.621Z,0.60
2022-10-02T13:41:13.338Z,8.07
2022-10-02T13:44:03.423Z,4.57
2022-10-02T13:46:47.593Z,2.58
2022-10-02T13:49:28.805Z,7.20
2022-10-02T13:52:04.790Z,16.83
2022-10-02T13:55:04.766Z,12.50
2022-10-02T13:57:49.750Z,2.75
2022-10-02T14:00:25.218Z,7.72
2022-10-02T14:03:08.109Z,7.45
2022-10-02T14:05:43.507Z,5.90
2022-10-02T14:08:35.544Z,6.32
2022-10-02T14:11:16.743Z,1.05
2022-10-02T14:14:03.194Z,1.95
2022-10-02T14:16:45.757Z,24.90
2022-10-02T14:19:31.804Z,32.03
2022-10-02T14:22:21.613Z,2.70
2022-10-02T14:25:22.866Z,17.77
2022-10-02T14:28:06.180Z,2.28
2022-10-02T14:30:59.988Z,4.47
2022-10-02T14:33:44.361Z,6.47
2022-10-02T14:36:20.328Z,14.20
2022-10-02T14:39:01.726Z,4.50
2022-10-02T14:41:55.350Z,3.75
2022-10-02T14:44:47.155Z,3.88
2022-10-02T14:47:37.750Z,1.65
2022-10-02T14:50:23.459Z,2.65
2022-10-02T14:53:27.639Z,1.23
2022-10-02T14:56:21.871Z,6.35
2022-10-02T14:59:04.005Z,4.68
2022-10-02T15:01:39.856Z,7.22
2022-10-02T15:04:39.872Z,2.28
2022-10-02T15:07:11.924Z,2.22
2022-10-02T15:09:54.641Z,4.43
2022-10-02T15:12:28.526Z,1.58
2022-10-02T15:15:09.280Z,3.33
2022-10-02T15:17:57.155Z,7.60
2022-10-02T15:20:32.252Z,10.15
2022-10-02T15:23:03.291Z,2.05
2022-10-02T15:25:55.721Z,14.50
2022-10-02T15:28:37.915Z,1.30
2022-10-02T15:31:17.369Z,7.72
2022-10-02T15:33:50.661Z,8.73
2022-10-02T15:36:38.538Z,21.33
2022-10-02T15:39:21.292Z,8.02
2022-10-02T15:42:05.522Z,2.25
2022-10-02T15:44:56.209Z,4.18
2022-10-02T15:47:49.322Z,4.38
2022-10-02T15:50:35.498Z,2.70
2022-10-02T15:53:27.294Z,13.65
2022-10-02T15:56:00.831Z,7.03
2022-10-02T15:58:50.808Z,2.38
2022-10-02T16:01:42.866Z,10.15
2022-10-02T16:04:24.249Z,6.05
2022-10-02T16:07:21.397Z,14.95
2022-10-02T16:09:58.778Z,4.57
2022-10-02T16:12:39.302Z,2.97
2022-10-02T16:15:23.001Z,7.93
2022-10-02T16:18:02.230Z,4.88
2022-10-02T16:20:44.306Z,7.65
2022-10-02T16:23:39.306Z,3.47
2022-10-02T16:26:23.557Z,3.10
2022-10-02T16:29:01.255Z,12.63
2022-10-02T16:31:48.995Z,1.60
2022-10-02T16:34:32.771Z,2.78
2022-10-02T16:37:09.264Z,5.35
2022-10-02T16:39:50.720Z,2.83
2022-10-02T16:42:22.354Z,2.13
2022-10-02T16:45:04.007Z,1.42
2022-10-02T16:47:44.127Z,0.30
2022-10-02T16:50:19.337Z,1.02
2022-10-02T16:52:55.163Z,2.30
2022-10-02T16:55:33.509Z,2.38
2022-10-02T16:58:13.391Z,2.95
2022-10-02T17:00:54.219Z,0.47
2022-10-02T17:03:31.598Z,3.40
2022-10-02T17:06:08.479Z,3.78
2022-10-02T17:08:44.725Z,2.17
2022-10-02T17:11:21.935Z,2.35
2022-10-02T17:14:03.680Z,0.52
2022-10-02T17:16:38.182Z,1.25
2022-10-02T17:19:21.985Z,1.88
2022-10-02T17:21:54.746Z,1.88
2022-10-02T17:24:35.701Z,0.45
2022-10-02T17:27:14.633Z,0.20
2022-10-02T17:29:52.992Z,0.88
2022-10-02T17:32:48.362Z,1.40
2022-10-02T17:35:29.275Z,1.63
2022-10-02T17:38:26.686Z,0.90
2022-10-02T17:41:06.418Z,1.95
2022-10-02T17:43:43.532Z,1.58
2022-10-02T17:46:47.258Z,1.95
2022-10-02T17:49:27.636Z,1.05
2022-10-02T17:52:21.830Z,0.98
2022-10-02T17:55:22.166Z,2.43
2022-10-02T17:58:02.881Z,2.07
2022-10-02T18:00:36.896Z,0.57
2022-10-02T18:03:32.586Z,0.40
2022-10-02T18:06:15.987Z,0.27
2022-10-02T18:09:25.659Z,0.20
2022-10-02T18:12:16.075Z,1.73
2022-10-02T18:15:22.956Z,1.53
2022-10-02T18:18:24.802Z,0.80
2022-10-02T18:21:08.506Z,1.10
2022-10-02T18:24:11.273Z,1.17
2022-10-02T18:26:57.318Z,0.63
2022-10-02T18:29:42.288Z,0.80
2022-10-02T18:32:28.511Z,0.90
2022-10-02T18:35:32.309Z,1.47
2022-10-02T18:38:13.690Z,0.90
2022-10-02T18:40:55.190Z,1.50
2022-10-02T18:43:39.019Z,0.40
2022-10-02T18:46:18.167Z,0.40
2022-10-02T18:49:18.851Z,0.50
2022-10-02T18:52:16.756Z,0.83
2022-10-02T18:55:09.237Z,0.87
2022-10-02T18:57:52.851Z,0.60
2022-10-02T19:00:24.718Z,0.60
2022-10-02T19:03:17.971Z,1.97
2022-10-02T19:05:52.334Z,0.93
2022-10-02T19:08:27.569Z,0.97
2022-10-02T19:10:56.276Z,0.30
2022-10-02T19:13:28.006Z,0.97
2022-10-02T19:16:01.324Z,1.17
2022-10-02T19:18:32.966Z,0.63
2022-10-02T19:21:06.776Z,1.40
2022-10-02T19:23:39.634Z,0.57
2022-10-02T19:26:17.939Z,0.53
2022-10-02T19:28:49.449Z,1.50
2022-10-02T19:31:24.247Z,1.17
2022-10-02T19:33:55.733Z,1.37
2022-10-02T19:36:27.437Z,1.73
2022-10-02T19:38:59.427Z,1.23
2022-10-02T19:41:27.868Z,0.60
2022-10-02T19:44:00.101Z,0.33
2022-10-02T19:46:39.537Z,0.73
2022-10-02T19:49:09.846Z,0.77
2022-10-02T19:51:47.073Z,1.10
2022-10-02T19:54:21.115Z,1.53
2022-10-02T19:56:53.519Z,1.60
2022-10-02T19:59:26.785Z,0.43
2022-10-02T20:02:02.293Z,1.90
2022-10-02T20:04:33.195Z,0.50
2022-10-02T20:07:02.226Z,0.87
2022-10-02T20:09:37.472Z,0.57
2022-10-02T20:12:11.981Z,0.73
2022-10-02T20:14:44.283Z,0.30
2022-10-02T20:17:17.833Z,0.83
2022-10-02T20:19:52.934Z,0.50
2022-10-02T20:22:31.584Z,1.03
2022-10-02T20:25:05.232Z,0.80
2022-10-02T20:27:42.478Z,1.43
2022-10-02T20:30:15.143Z,1.90
2022-10-02T20:32:50.806Z,0.30
2022-10-02T20:35:29.200Z,2.03
2022-10-02T20:37:59.663Z,0.90
2022-10-02T20:40:31.556Z,1.00
2022-10-02T20:43:06.730Z,3.90
2022-10-02T20:45:44.254Z,0.77
2022-10-02T20:49:06.873Z,1.33
2022-10-02T20:52:09.181Z,0.60
2022-10-02T20:54:51.701Z,0.50
2022-10-02T20:58:16.463Z,0.70
2022-10-02T21:01:01.145Z,0.30
2022-10-02T21:03:55.755Z,1.83
2022-10-02T21:06:48.394Z,1.27
2022-10-02T21:09:54.021Z,0.50
2022-10-02T21:12:58.422Z,3.40
2022-10-02T21:16:10.858Z,2.87
2022-10-02T21:19:10.395Z,0.57
2022-10-02T21:22:09.848Z,0.40
2022-10-02T21:25:25.369Z,1.43
2022-10-02T21:28:33.519Z,1.03
2022-10-02T21:31:15.147Z,0.33
2022-10-02T21:33:58.057Z,0.93
2022-10-02T21:36:33.777Z,0.53
2022-10-02T21:39:44.869Z,1.07
2022-10-02T21:42:45.045Z,3.30
2022-10-02T21:45:40.306Z,1.27
2022-10-02T21:48:43.862Z,1.53
2022-10-02T21:51:53.788Z,1.60
2022-10-02T21:54:59.506Z,0.73
2022-10-02T21:57:57.494Z,0.50
2022-10-02T22:00:27.511Z,1.13
2022-10-02T22:03:34.027Z,1.43
2022-10-02T22:06:12.441Z,0.30
2022-10-02T22:08:56.489Z,1.60
2022-10-02T22:11:35.509Z,2.83
2022-10-02T22:14:11.902Z,1.47
2022-10-02T22:16:55.266Z,0.30
2022-10-02T22:19:41.595Z,1.33
2022-10-02T22:22:23.020Z,1.00
2022-10-02T22:25:22.959Z,2.13
2022-10-02T22:28:12.340Z,1.47
2022-10-02T22:30:49.059Z,0.57
2022-10-02T22:33:42.371Z,1.00
2022-10-02T22:36:42.949Z,3.43
2022-10-02T22:39:17.916Z,1.30
2022-10-02T22:41:55.322Z,1.17
2022-10-02T22:44:31.241Z,0.50
2022-10-02T22:47:08.201Z,0.97
2022-10-02T22:49:39.650Z,2.17
2022-10-02T22:52:17.683Z,1.17
2022-10-02T22:54:52.681Z,0.30
2022-10-02T22:57:30.408Z,0.30
2022-10-02T23:00:04.752Z,0.50
2022-10-02T23:02:38.329Z,0.60
2022-10-02T23:05:12.893Z,2.90
2022-10-02T23:07:46.639Z,1.50
2022-10-02T23:10:23.956Z,1.07
2022-10-02T23:13:01.714Z,1.23
2022-10-02T23:15:42.049Z,1.13
2022-10-02T23:18:21.954Z,1.63
2022-10-02T23:21:02.511Z,0.77
2022-10-02T23:23:37.053Z,0.80
2022-10-02T23:26:11.860Z,1.03
2022-10-02T23:28:47.134Z,0.57
2022-10-02T23:31:23.917Z,3.20
2022-10-02T23:33:58.297Z,1.80
2022-10-02T23:36:33.959Z,1.37
2022-10-02T23:39:12.278Z,2.87
2022-10-02T23:41:48.221Z,1.07
2022-10-02T23:44:30.278Z,1.00
2022-10-02T23:47:11.224Z,0.50
2022-10-02T23:49:42.621Z,0.47
2022-10-02T23:52:53.612Z,1.23
2022-10-02T23:55:38.257Z,1.87
2022-10-02T23:58:29.975Z,0.60
